Time;durP1;ratioP1;P1;durP2;ratioP2;P2;SDS_P1;SDS_P2;PMS_P1;PMS_P2;Temp;Humidity;BMP_temperature;BMP_pressure;BME280_temperature;BME280_humidity;BME280_pressure;Samples;Min_cycle;Max_cycle;Signal;HPM_P1;HPM_P2
2023/11/01 00:01:12;;;;;;;76.72;12.65;;;13.80;95.40;;;;;;5068282;28;20033;-58
2023/11/01 00:03:38;;;;;;;69.30;11.38;;;13.80;95.50;;;;;;5068300;28;20025;-58
2023/11/01 00:06:04;;;;;;;63.17;11.98;;;13.80;95.50;;;;;;5068226;28;20054;-57
2023/11/01 00:08:29;;;;;;;59.88;11.70;;;13.70;95.50;;;;;;5068070;28;20028;-58
2023/11/01 00:10:55;;;;;;;66.85;10.05;;;13.70;95.60;;;;;;5086223;28;20033;-57
2023/11/01 00:13:20;;;;;;;65.70;11.10;;;13.70;95.60;;;;;;5067952;28;20155;-57
2023/11/01 00:15:46;;;;;;;61.70;11.13;;;13.70;95.60;;;;;;5068060;28;20036;-57
2023/11/01 00:18:11;;;;;;;51.45;9.82;;;13.70;95.60;;;;;;5086046;28;20080;-57
2023/11/01 00:20:37;;;;;;;60.35;10.80;;;13.60;95.60;;;;;;5086069;28;20036;-57
2023/11/01 00:23:02;;;;;;;53.45;9.95;;;13.60;95.50;;;;;;5086071;28;20085;-57
2023/11/01 00:25:28;;;;;;;52.13;10.10;;;13.60;95.50;;;;;;5071675;28;20032;-57
2023/11/01 00:27:54;;;;;;;49.85;9.50;;;13.60;95.50;;;;;;5090102;28;20362;-57
2023/11/01 00:30:19;;;;;;;61.00;9.70;;;13.60;95.50;;;;;;5089990;28;20484;-57
2023/11/01 00:32:45;;;;;;;55.17;9.63;;;13.60;95.50;;;;;;5072017;28;20360;-57
2023/11/01 00:35:10;;;;;;;48.47;8.93;;;13.50;95.60;;;;;;5089854;28;20029;-57
2023/11/01 00:37:36;;;;;;;57.83;9.52;;;13.50;95.70;;;;;;5071852;28;20056;-57
2023/11/01 00:40:02;;;;;;;48.90;9.15;;;13.40;95.70;;;;;;5089922;28;20021;-58
2023/11/01 00:42:28;;;;;;;43.47;8.63;;;13.40;95.80;;;;;;5089667;28;20076;-57
2023/11/01 00:44:54;;;;;;;36.88;8.35;;;13.40;96.10;;;;;;5089718;28;20038;-57
2023/11/01 00:47:19;;;;;;;30.70;7.68;;;13.40;95.80;;;;;;5055106;28;20087;-57
2023/11/01 00:49:45;;;;;;;45.28;7.65;;;13.30;95.80;;;;;;5071647;28;20062;-57
2023/11/01 00:52:11;;;;;;;31.70;8.05;;;13.30;95.80;;;;;;5089700;28;20059;-57
2023/11/01 00:54:36;;;;;;;39.42;7.85;;;13.30;95.90;;;;;;5071429;28;20507;-57
2023/11/01 00:57:02;;;;;;;32.75;7.32;;;13.30;95.90;;;;;;5089500;28;20033;-57
2023/11/01 00:59:28;;;;;;;35.15;7.78;;;13.20;95.90;;;;;;5071361;28;20495;-58
2023/11/01 01:01:53;;;;;;;32.50;6.45;;;13.30;95.90;;;;;;5071518;28;20051;-57
2023/11/01 01:04:19;;;;;;;41.15;7.40;;;13.20;95.90;;;;;;5089377;28;20021;-57
2023/11/01 01:06:44;;;;;;;32.92;7.35;;;13.20;95.90;;;;;;5071529;28;20056;-57
2023/11/01 01:09:12;;;;;;;34.95;6.72;;;13.20;95.90;;;;;;5071416;28;20039;-57
2023/11/01 01:11:38;;;;;;;31.23;7.50;;;13.10;95.90;;;;;;5089349;28;20028;-57
2023/11/01 01:14:03;;;;;;;31.75;7.03;;;13.10;95.90;;;;;;5071141;28;20052;-57
2023/11/01 01:16:29;;;;;;;33.80;7.70;;;13.10;95.90;;;;;;5089067;28;20028;-57
2023/11/01 01:18:55;;;;;;;28.73;6.35;;;13.10;96.00;;;;;;5088891;28;20031;-57
2023/11/01 01:21:20;;;;;;;33.90;6.70;;;13.00;96.00;;;;;;5070983;28;20420;-57
2023/11/01 01:23:46;;;;;;;32.33;6.80;;;13.10;96.00;;;;;;5070885;28;20058;-57
2023/11/01 01:26:11;;;;;;;30.27;6.65;;;13.10;96.00;;;;;;5070963;28;20035;-57
2023/11/01 01:28:37;;;;;;;22.35;5.50;;;13.00;96.00;;;;;;5088849;28;20378;-57
2023/11/01 01:31:02;;;;;;;28.13;6.10;;;13.00;96.00;;;;;;5070965;28;20051;-57
2023/11/01 01:33:28;;;;;;;32.10;6.78;;;13.00;96.10;;;;;;5070514;28;20033;-57
2023/11/01 01:35:54;;;;;;;30.70;5.97;;;13.00;96.10;;;;;;5070540;28;20148;-57
2023/11/01 01:38:20;;;;;;;25.60;6.13;;;13.00;96.10;;;;;;5088789;28;20119;-57
2023/11/01 01:40:46;;;;;;;24.65;5.78;;;13.00;96.00;;;;;;5088609;28;20028;-57
2023/11/01 01:43:18;;;;;;;20.55;5.57;;;13.00;96.00;;;;;;5088606;28;20021;-57
2023/11/01 01:45:48;;;;;;;21.10;5.05;;;13.00;95.90;;;;;;5070673;28;20081;-57
2023/11/01 01:48:13;;;;;;;21.65;5.22;;;13.00;95.80;;;;;;5070672;28;20024;-58
2023/11/01 01:50:39;;;;;;;22.42;5.15;;;13.00;95.80;;;;;;5070636;28;20029;-57
2023/11/01 01:53:05;;;;;;;32.30;5.63;;;12.90;95.80;;;;;;5050411;28;20067;-57
2023/11/01 01:55:30;;;;;;;25.10;6.22;;;12.90;95.80;;;;;;5070478;28;20024;-57
2023/11/01 01:57:59;;;;;;;22.60;5.60;;;12.90;95.90;;;;;;5070490;28;20025;-57
2023/11/01 02:00:28;;;;;;;22.35;5.93;;;12.90;96.20;;;;;;5070589;28;20033;-57
2023/11/01 02:02:53;;;;;;;19.42;5.43;;;12.80;95.90;;;;;;5070600;28;20020;-57
2023/11/01 02:05:20;;;;;;;14.18;5.20;;;12.80;96.00;;;;;;5053531;28;20055;-57
2023/11/01 02:07:46;;;;;;;17.77;4.65;;;12.70;96.00;;;;;;5053511;28;20064;-57
2023/11/01 02:10:14;;;;;;;16.83;5.30;;;12.80;96.00;;;;;;5070151;28;20539;-57
2023/11/01 02:12:40;;;;;;;17.65;5.00;;;12.80;96.30;;;;;;5070611;28;20024;-57
2023/11/01 02:15:06;;;;;;;20.65;4.93;;;12.70;96.00;;;;;;5087950;28;20055;-57
2023/11/01 02:17:32;;;;;;;19.98;5.10;;;12.80;96.10;;;;;;5088011;28;20016;-57
2023/11/01 02:19:58;;;;;;;16.33;5.03;;;12.70;96.10;;;;;;5069973;28;20036;-57
2023/11/01 02:22:23;;;;;;;20.23;4.65;;;12.70;96.00;;;;;;5069814;28;20032;-57
2023/11/01 02:24:49;;;;;;;18.95;4.78;;;12.70;96.00;;;;;;5087830;28;20032;-57
2023/11/01 02:27:15;;;;;;;28.02;5.28;;;12.70;96.00;;;;;;5069914;28;20039;-57
2023/11/01 02:29:41;;;;;;;16.75;4.75;;;12.70;96.00;;;;;;5053182;28;20033;-57
2023/11/01 02:32:08;;;;;;;19.55;5.60;;;12.70;96.00;;;;;;5069854;28;20040;-57
2023/11/01 02:34:33;;;;;;;16.75;5.35;;;12.70;96.00;;;;;;5069841;28;20025;-57
2023/11/01 02:36:59;;;;;;;13.43;5.18;;;12.70;96.10;;;;;;5069755;28;20039;-57
2023/11/01 02:39:25;;;;;;;16.13;4.72;;;12.60;96.10;;;;;;5069559;28;20024;-57
2023/11/01 02:41:50;;;;;;;18.38;5.90;;;12.60;96.10;;;;;;5069501;28;20097;-57
2023/11/01 02:44:16;;;;;;;14.40;4.50;;;12.60;96.10;;;;;;5087497;28;20031;-57
2023/11/01 02:46:41;;;;;;;18.55;5.15;;;12.60;96.20;;;;;;5086925;28;20029;-57
2023/11/01 02:49:07;;;;;;;15.73;5.28;;;12.60;96.20;;;;;;5069449;28;20021;-57
2023/11/01 02:51:33;;;;;;;16.30;4.70;;;12.60;96.20;;;;;;5087472;28;20024;-57
2023/11/01 02:53:58;;;;;;;10.93;4.55;;;12.60;96.30;;;;;;5069349;28;20029;-57
2023/11/01 02:56:24;;;;;;;16.40;4.93;;;12.50;96.20;;;;;;5087266;28;20601;-57
2023/11/01 02:58:49;;;;;;;12.93;4.35;;;12.50;96.20;;;;;;5087209;28;20472;-57
2023/11/01 03:01:16;;;;;;;17.00;4.90;;;12.50;96.20;;;;;;5087151;28;20037;-57
2023/11/01 03:03:42;;;;;;;11.52;4.38;;;12.50;96.20;;;;;;5069661;28;20029;-57
2023/11/01 03:06:08;;;;;;;13.30;4.80;;;12.50;96.20;;;;;;5052281;28;20124;-57
2023/11/01 03:08:34;;;;;;;13.68;4.95;;;12.50;96.30;;;;;;5069303;28;20054;-57
2023/11/01 03:11:00;;;;;;;15.07;4.10;;;12.50;96.30;;;;;;5086993;28;20036;-57
2023/11/01 03:13:25;;;;;;;15.15;4.13;;;12.50;96.30;;;;;;5086838;28;20070;-57
2023/11/01 03:15:51;;;;;;;13.23;4.78;;;12.50;96.30;;;;;;5086844;28;20078;-57
2023/11/01 03:18:16;;;;;;;8.50;4.05;;;12.40;96.30;;;;;;5086794;28;20399;-58
2023/11/01 03:20:42;;;;;;;13.57;4.28;;;12.40;96.40;;;;;;5068686;28;20035;-57
2023/11/01 03:23:07;;;;;;;16.20;4.00;;;12.40;96.40;;;;;;5086727;28;20029;-58
2023/11/01 03:25:33;;;;;;;12.07;4.43;;;12.40;96.40;;;;;;5086795;28;20021;-57
2023/11/01 03:27:58;;;;;;;11.20;4.30;;;12.40;96.40;;;;;;5068824;28;20541;-57
2023/11/01 03:30:24;;;;;;;14.30;5.13;;;12.40;96.40;;;;;;5068770;28;20111;-57
2023/11/01 03:32:50;;;;;;;13.35;4.78;;;12.40;96.70;;;;;;5068761;28;20037;-57
2023/11/01 03:35:15;;;;;;;13.25;4.53;;;12.30;96.40;;;;;;5068539;28;20110;-57
2023/11/01 03:37:41;;;;;;;14.30;4.65;;;12.30;96.40;;;;;;5086326;28;20036;-57
2023/11/01 03:40:07;;;;;;;12.60;4.70;;;12.30;96.40;;;;;;5068635;28;20035;-57
2023/11/01 03:42:32;;;;;;;10.88;4.85;;;12.30;96.40;;;;;;5068465;28;20017;-57
2023/11/01 03:44:58;;;;;;;12.25;4.90;;;12.30;96.40;;;;;;5068492;28;20039;-57
2023/11/01 03:47:23;;;;;;;12.40;4.30;;;12.30;96.40;;;;;;5068259;28;20024;-57
2023/11/01 03:49:49;;;;;;;11.68;4.20;;;12.20;96.30;;;;;;5086268;28;20058;-57
2023/11/01 03:52:15;;;;;;;10.32;4.22;;;12.20;96.40;;;;;;5068287;28;20047;-57
2023/11/01 03:54:40;;;;;;;8.65;4.18;;;12.20;96.40;;;;;;5068397;28;20028;-57
2023/11/01 03:57:06;;;;;;;9.05;4.55;;;12.20;96.40;;;;;;5086277;28;20088;-56
2023/11/01 03:59:32;;;;;;;7.85;3.55;;;12.20;96.40;;;;;;5068277;28;20028;-57
2023/11/01 04:01:58;;;;;;;9.18;4.40;;;12.20;96.40;;;;;;5051499;28;20033;-57
2023/11/01 04:04:23;;;;;;;8.50;3.75;;;12.20;96.30;;;;;;5086475;28;20350;-57
2023/11/01 04:06:49;;;;;;;12.20;3.85;;;12.20;96.30;;;;;;5086211;28;20032;-57
2023/11/01 04:09:14;;;;;;;6.97;4.18;;;12.20;96.30;;;;;;5086230;28;20054;-57
2023/11/01 04:11:41;;;;;;;16.20;4.35;;;12.20;96.30;;;;;;5068222;28;20035;-57
2023/11/01 04:14:06;;;;;;;8.77;4.47;;;12.20;96.40;;;;;;5068131;28;20029;-57
2023/11/01 04:16:32;;;;;;;9.75;4.57;;;12.10;96.50;;;;;;5086087;28;20032;-58
2023/11/01 04:18:57;;;;;;;9.05;3.97;;;12.10;96.60;;;;;;5068227;28;20021;-57
2023/11/01 04:21:23;;;;;;;10.57;4.10;;;12.10;96.70;;;;;;5085815;28;20502;-57
2023/11/01 04:23:50;;;;;;;8.82;3.95;;;12.10;96.60;;;;;;5068146;28;20028;-57
2023/11/01 04:26:15;;;;;;;12.95;3.92;;;12.10;96.60;;;;;;5067955;28;20104;-58
2023/11/01 04:28:41;;;;;;;8.98;3.75;;;12.10;96.60;;;;;;5086055;28;20044;-57
2023/11/01 04:31:07;;;;;;;10.10;3.50;;;12.10;96.50;;;;;;5068025;28;20024;-57
2023/11/01 04:33:33;;;;;;;11.40;3.47;;;12.10;96.60;;;;;;5085957;28;20081;-57
2023/11/01 04:35:58;;;;;;;10.38;3.78;;;12.10;96.60;;;;;;5085943;28;20024;-57
2023/11/01 04:38:24;;;;;;;7.88;3.78;;;12.00;96.60;;;;;;5085960;28;20028;-57
2023/11/01 04:40:49;;;;;;;10.68;4.25;;;12.00;96.60;;;;;;5068035;28;20032;-57
2023/11/01 04:43:15;;;;;;;11.27;4.88;;;12.00;96.60;;;;;;5067926;28;20028;-57
2023/11/01 04:45:41;;;;;;;8.43;4.45;;;12.00;96.60;;;;;;5067839;28;20028;-57
2023/11/01 04:48:06;;;;;;;10.23;4.45;;;12.00;96.60;;;;;;5047800;28;20433;-57
2023/11/01 04:50:32;;;;;;;12.27;4.50;;;12.00;96.60;;;;;;5067944;28;20461;-57
2023/11/01 04:52:57;;;;;;;12.68;3.90;;;11.90;96.60;;;;;;5085918;28;20020;-57
2023/11/01 04:55:23;;;;;;;9.32;4.03;;;11.90;96.60;;;;;;5067637;28;20048;-57
2023/11/01 04:57:49;;;;;;;7.40;4.18;;;11.90;96.60;;;;;;5085640;28;20033;-57
2023/11/01 05:00:16;;;;;;;9.20;4.03;;;11.90;96.60;;;;;;5067774;28;20093;-57
2023/11/01 05:02:45;;;;;;;6.82;4.20;;;11.90;96.50;;;;;;5067847;28;20036;-57
2023/11/01 05:05:11;;;;;;;7.68;3.85;;;11.90;96.50;;;;;;5068018;28;20033;-57
2023/11/01 05:07:40;;;;;;;7.68;3.75;;;11.90;96.50;;;;;;5050952;28;20063;-57
2023/11/01 05:10:07;;;;;;;9.88;4.00;;;11.80;96.50;;;;;;5086849;28;20031;-57
2023/11/01 05:12:32;;;;;;;9.18;4.13;;;11.80;96.40;;;;;;5089268;28;20024;-57
2023/11/01 05:14:58;;;;;;;8.73;3.95;;;11.90;96.40;;;;;;5071127;28;20035;-57
2023/11/01 05:17:23;;;;;;;7.55;3.67;;;11.80;96.30;;;;;;5071087;28;20016;-57
2023/11/01 05:19:49;;;;;;;10.02;4.10;;;11.80;96.40;;;;;;5071035;28;20025;-57
2023/11/01 05:22:14;;;;;;;5.93;3.15;;;11.80;96.40;;;;;;5071037;28;20032;-57
2023/11/01 05:24:40;;;;;;;5.78;3.50;;;11.80;96.30;;;;;;5071037;28;20028;-57
2023/11/01 05:27:08;;;;;;;12.57;3.92;;;11.80;96.30;;;;;;5088951;28;20031;-57
2023/11/01 05:29:35;;;;;;;14.80;3.95;;;11.80;96.40;;;;;;5089055;28;20048;-57
2023/11/01 05:32:00;;;;;;;20.38;4.32;;;11.70;96.30;;;;;;5087071;28;20023;-57
2023/11/01 05:34:26;;;;;;;17.13;3.90;;;11.70;96.30;;;;;;5053014;28;20054;-56
2023/11/01 05:36:52;;;;;;;22.10;5.07;;;11.70;96.30;;;;;;5087392;28;20469;-57
2023/11/01 05:39:18;;;;;;;41.08;6.90;;;11.70;96.30;;;;;;5088685;28;20086;-57
2023/11/01 05:41:51;;;;;;;35.25;7.20;;;11.70;96.20;;;;;;5088234;28;20036;-57
2023/11/01 05:44:19;;;;;;;44.92;7.22;;;11.70;96.20;;;;;;5054813;28;20033;-56
2023/11/01 05:46:47;;;;;;;30.10;7.03;;;11.60;96.20;;;;;;5054660;28;20024;-57
2023/11/01 05:49:14;;;;;;;30.55;7.10;;;11.70;96.20;;;;;;5088464;28;20040;-57
2023/11/01 05:51:40;;;;;;;61.95;8.95;;;11.70;96.20;;;;;;5088590;28;20038;-57
2023/11/01 05:54:05;;;;;;;70.85;10.77;;;11.70;96.20;;;;;;5088409;28;20444;-57
2023/11/01 05:56:31;;;;;;;84.70;11.73;;;11.70;96.20;;;;;;5070443;28;20488;-57
2023/11/01 05:58:57;;;;;;;58.53;10.60;;;11.60;96.10;;;;;;5070496;28;20032;-57
2023/11/01 06:01:24;;;;;;;70.47;11.07;;;11.70;96.10;;;;;;5070271;28;20032;-57
2023/11/01 06:03:56;;;;;;;75.88;11.15;;;11.60;96.20;;;;;;5053908;28;20040;-57
2023/11/01 06:06:23;;;;;;;87.15;12.70;;;11.60;96.20;;;;;;5071018;28;20036;-57
2023/11/01 06:08:50;;;;;;;78.75;10.93;;;11.60;96.20;;;;;;5054616;28;20064;-57
2023/11/01 06:11:15;;;;;;;63.15;9.93;;;11.60;96.30;;;;;;5087980;28;20036;-57
2023/11/01 06:13:41;;;;;;;68.18;9.93;;;11.60;96.20;;;;;;5070069;28;20047;-57
2023/11/01 06:16:08;;;;;;;57.67;9.38;;;11.60;96.20;;;;;;5087958;28;20530;-57
2023/11/01 06:18:34;;;;;;;59.65;11.02;;;11.60;96.20;;;;;;5070024;28;20085;-57
2023/11/01 06:20:59;;;;;;;69.65;11.90;;;11.60;96.20;;;;;;5086954;28;20031;-57
2023/11/01 06:23:25;;;;;;;66.03;10.25;;;11.60;96.50;;;;;;5069384;28;20476;-57
2023/11/01 06:25:50;;;;;;;64.57;10.32;;;11.60;96.20;;;;;;5070036;28;20025;-57
2023/11/01 06:28:16;;;;;;;71.63;10.13;;;11.50;96.20;;;;;;5087808;28;20112;-57
2023/11/01 06:30:42;;;;;;;64.68;10.25;;;11.60;96.30;;;;;;5087660;28;20389;-57
2023/11/01 06:33:08;;;;;;;50.40;10.25;;;11.50;96.20;;;;;;5069781;28;20025;-57
2023/11/01 06:35:33;;;;;;;60.80;11.15;;;11.60;96.20;;;;;;5087392;28;20090;-57
2023/11/01 06:37:59;;;;;;;54.10;11.38;;;11.50;96.20;;;;;;5069576;28;20032;-57
2023/11/01 06:40:24;;;;;;;63.20;10.95;;;11.50;96.20;;;;;;5087718;28;20025;-57
2023/11/01 06:42:50;;;;;;;80.90;10.73;;;11.50;96.20;;;;;;5053128;28;20440;-57
2023/11/01 06:45:16;;;;;;;62.97;11.00;;;11.50;96.30;;;;;;5069700;28;20032;-57
2023/11/01 06:47:41;;;;;;;68.07;12.00;;;11.50;96.30;;;;;;5086354;28;20038;-57
2023/11/01 06:50:07;;;;;;;55.80;11.80;;;11.50;96.30;;;;;;5087196;28;20056;-57
2023/11/01 06:52:33;;;;;;;76.30;11.52;;;11.40;96.30;;;;;;5069316;28;20020;-57
2023/11/01 06:54:58;;;;;;;57.40;11.20;;;11.40;96.40;;;;;;5069315;28;20024;-57
2023/11/01 06:57:24;;;;;;;60.58;10.40;;;11.40;96.40;;;;;;5069274;28;20066;-57
2023/11/01 06:59:49;;;;;;;48.28;9.30;;;11.40;96.40;;;;;;5087104;28;20028;-57
2023/11/01 07:02:15;;;;;;;45.13;9.98;;;11.40;96.50;;;;;;5069126;28;20031;-57
2023/11/01 07:04:40;;;;;;;41.15;8.90;;;11.40;96.40;;;;;;5069123;28;20492;-57
2023/11/01 07:07:06;;;;;;;31.92;7.80;;;11.40;96.50;;;;;;5052245;28;20039;-57
2023/11/01 07:09:31;;;;;;;38.05;8.27;;;11.40;96.50;;;;;;5069012;28;20112;-58
2023/11/01 07:11:57;;;;;;;36.78;7.00;;;11.40;96.50;;;;;;5086832;28;20032;-57
2023/11/01 07:14:23;;;;;;;42.90;7.25;;;11.40;96.50;;;;;;5086849;28;20033;-57
2023/11/01 07:16:48;;;;;;;42.08;7.53;;;11.40;96.60;;;;;;5086734;28;20036;-57
2023/11/01 07:19:14;;;;;;;31.88;7.25;;;11.40;96.60;;;;;;5068761;28;20117;-57
2023/11/01 07:21:42;;;;;;;28.80;6.80;;;11.40;96.60;;;;;;5068704;28;20083;-57
2023/11/01 07:24:08;;;;;;;41.00;7.78;;;11.30;96.70;;;;;;5052347;28;20032;-57
2023/11/01 07:26:34;;;;;;;36.35;6.68;;;11.30;96.70;;;;;;5082625;28;20024;-57
2023/11/01 07:28:59;;;;;;;32.42;6.47;;;11.30;96.80;;;;;;5068064;28;20137;-57
2023/11/01 07:31:25;;;;;;;33.38;6.20;;;11.30;96.80;;;;;;5052015;28;20495;-57
2023/11/01 07:33:51;;;;;;;24.42;7.00;;;11.30;97.10;;;;;;5068668;28;20033;-57
2023/11/01 07:36:18;;;;;;;44.80;9.10;;;11.30;96.80;;;;;;5086512;28;20020;-57
2023/11/01 07:38:44;;;;;;;26.35;6.40;;;11.30;96.80;;;;;;5068435;28;20107;-57
2023/11/01 07:41:09;;;;;;;31.70;7.15;;;11.30;96.80;;;;;;5086472;28;20034;-57
2023/11/01 07:43:35;;;;;;;38.35;7.53;;;11.40;96.80;;;;;;5068371;28;20047;-57
2023/11/01 07:46:01;;;;;;;34.58;8.13;;;11.30;96.80;;;;;;5068280;28;20091;-57
2023/11/01 07:48:26;;;;;;;38.30;7.50;;;11.30;96.80;;;;;;5092720;28;20083;-57
2023/11/01 07:50:52;;;;;;;33.95;7.63;;;11.30;96.90;;;;;;5085604;28;20028;-57
2023/11/01 07:53:17;;;;;;;29.13;7.32;;;11.40;97.10;;;;;;5087555;28;20067;-57
2023/11/01 07:55:43;;;;;;;34.13;6.47;;;11.40;97.10;;;;;;5072710;28;20040;-57
2023/11/01 07:58:08;;;;;;;32.60;6.43;;;11.40;97.10;;;;;;5095106;28;20029;-58
2023/11/01 08:00:34;;;;;;;37.17;7.03;;;11.40;97.10;;;;;;5054642;28;20028;-57
2023/11/01 08:03:00;;;;;;;31.15;7.22;;;11.40;97.10;;;;;;5088054;28;20089;-57
2023/11/01 08:05:25;;;;;;;44.47;7.28;;;11.40;97.10;;;;;;5067767;28;20027;-57
2023/11/01 08:07:52;;;;;;;24.40;6.88;;;11.40;97.20;;;;;;5076299;28;20060;-57
2023/11/01 08:10:17;;;;;;;34.08;8.48;;;11.40;97.20;;;;;;5045718;28;20024;-57
2023/11/01 08:12:43;;;;;;;35.92;7.15;;;11.40;97.20;;;;;;5054355;28;20406;-57
2023/11/01 08:15:09;;;;;;;48.13;8.07;;;11.40;97.30;;;;;;5086924;28;20419;-57
2023/11/01 08:17:34;;;;;;;34.78;7.18;;;11.50;97.30;;;;;;5083018;28;20036;-57
2023/11/01 08:20:00;;;;;;;40.75;7.20;;;11.50;97.20;;;;;;5065716;28;20016;-57
2023/11/01 08:22:25;;;;;;;33.42;6.22;;;11.50;97.20;;;;;;5065157;28;20081;-57
2023/11/01 08:24:51;;;;;;;23.25;5.97;;;11.50;97.20;;;;;;5083197;28;20039;-57
2023/11/01 08:27:17;;;;;;;33.15;6.38;;;11.50;97.10;;;;;;5033561;28;20031;-57
2023/11/01 08:29:43;;;;;;;22.27;6.45;;;11.50;97.10;;;;;;5047960;28;20061;-57
2023/11/01 08:32:09;;;;;;;25.98;5.70;;;11.60;97.20;;;;;;5076299;28;20046;-57
2023/11/01 08:34:35;;;;;;;22.20;5.40;;;11.50;97.10;;;;;;5053367;28;20132;-57
2023/11/01 08:37:01;;;;;;;26.95;6.25;;;11.60;97.20;;;;;;5064002;28;20025;-57
2023/11/01 08:39:27;;;;;;;29.33;6.38;;;11.60;97.20;;;;;;5063954;28;20036;-57
2023/11/01 08:41:53;;;;;;;29.73;6.35;;;11.50;97.20;;;;;;5066704;28;20025;-57
2023/11/01 08:44:18;;;;;;;29.48;6.90;;;11.60;97.40;;;;;;5062910;28;20373;-57
2023/11/01 08:46:44;;;;;;;31.60;6.65;;;11.50;97.10;;;;;;5048882;28;20025;-57
2023/11/01 08:49:11;;;;;;;24.17;6.60;;;11.50;97.20;;;;;;5096979;28;20036;-57
2023/11/01 08:51:38;;;;;;;28.00;5.68;;;11.60;97.30;;;;;;5075464;28;20038;-57
2023/11/01 08:54:04;;;;;;;27.10;5.95;;;11.60;97.40;;;;;;5090694;28;20082;-57
2023/11/01 08:56:30;;;;;;;35.50;6.07;;;11.60;97.40;;;;;;5094520;28;20036;-57
2023/11/01 08:58:55;;;;;;;37.03;7.22;;;11.60;97.40;;;;;;5086297;28;20043;-57
2023/11/01 09:01:21;;;;;;;34.47;6.45;;;11.60;97.30;;;;;;5055229;28;20046;-57
2023/11/01 09:03:47;;;;;;;41.25;7.45;;;11.60;97.30;;;;;;5054249;28;20082;-57
2023/11/01 09:06:12;;;;;;;37.70;6.45;;;11.70;97.30;;;;;;5077403;28;20033;-57
2023/11/01 09:08:38;;;;;;;32.80;6.65;;;11.70;97.40;;;;;;5075192;28;20039;-57
2023/11/01 09:11:04;;;;;;;36.10;5.75;;;11.70;97.40;;;;;;5077110;28;20037;-57
2023/11/01 09:13:30;;;;;;;38.13;7.68;;;11.70;97.40;;;;;;5052944;28;20044;-57
2023/11/01 09:15:55;;;;;;;41.95;7.60;;;11.70;97.30;;;;;;5066195;28;20031;-56
2023/11/01 09:18:21;;;;;;;47.97;9.15;;;11.70;97.40;;;;;;5050978;28;20108;-57
2023/11/01 09:20:47;;;;;;;65.00;10.15;;;11.70;97.50;;;;;;5064129;28;20025;-57
2023/11/01 09:23:12;;;;;;;52.28;8.80;;;11.80;97.50;;;;;;5087291;28;20488;-57
2023/11/01 09:25:38;;;;;;;64.35;10.35;;;11.80;97.60;;;;;;5075788;28;20028;-57
2023/11/01 09:28:04;;;;;;;101.40;14.95;;;11.80;97.70;;;;;;5104918;28;20073;-57
2023/11/01 09:30:29;;;;;;;69.78;11.98;;;11.90;97.90;;;;;;5061424;28;20029;-57
2023/11/01 09:32:55;;;;;;;68.90;10.93;;;11.90;97.90;;;;;;5077316;28;20063;-57
2023/11/01 09:35:20;;;;;;;59.15;10.45;;;11.90;97.90;;;;;;5074855;28;20029;-57
2023/11/01 09:37:46;;;;;;;61.42;10.48;;;11.90;97.90;;;;;;5084679;28;20026;-57
2023/11/01 09:40:12;;;;;;;59.53;9.77;;;11.90;97.90;;;;;;5069502;28;20031;-58
2023/11/01 09:42:38;;;;;;;61.45;9.77;;;12.00;97.90;;;;;;5055956;28;20021;-57
2023/11/01 09:45:06;;;;;;;70.30;11.00;;;12.00;98.00;;;;;;5059411;28;20024;-57
2023/11/01 09:47:32;;;;;;;64.07;11.38;;;12.00;98.00;;;;;;5043669;28;20044;-56
2023/11/01 09:49:58;;;;;;;67.35;10.00;;;12.10;98.10;;;;;;5087709;28;20037;-57
2023/11/01 09:52:24;;;;;;;89.43;11.93;;;12.10;98.00;;;;;;5050820;28;20070;-57
2023/11/01 09:54:52;;;;;;;67.85;11.45;;;12.10;98.10;;;;;;5069674;28;20032;-57
2023/11/01 09:57:18;;;;;;;72.22;12.80;;;12.10;98.20;;;;;;5047445;28;20104;-57
2023/11/01 09:59:44;;;;;;;93.47;11.98;;;12.20;98.40;;;;;;5035894;28;20040;-57
2023/11/01 10:02:10;;;;;;;99.47;11.32;;;12.20;98.40;;;;;;5055112;28;20014;-57
2023/11/01 10:04:39;;;;;;;63.80;11.15;;;12.20;98.30;;;;;;5067613;28;20038;-57
2023/11/01 10:07:05;;;;;;;63.15;11.15;;;12.30;98.30;;;;;;5063169;28;20096;-57
2023/11/01 10:09:31;;;;;;;61.72;10.75;;;12.30;98.30;;;;;;5065334;28;20036;-57
2023/11/01 10:11:57;;;;;;;59.38;10.07;;;12.30;98.10;;;;;;5065867;28;20059;-57
2023/11/01 10:14:30;;;;;;;100.13;15.50;;;12.40;98.20;;;;;;5079354;28;20041;-57
2023/11/01 10:16:58;;;;;;;82.13;12.57;;;12.40;98.10;;;;;;5048240;28;20016;-57
2023/11/01 10:19:24;;;;;;;105.40;14.15;;;12.50;98.20;;;;;;5063010;28;20059;-57
2023/11/01 10:21:51;;;;;;;118.93;16.38;;;12.50;98.00;;;;;;5065734;28;20464;-57
2023/11/01 10:24:17;;;;;;;113.45;15.90;;;12.50;98.10;;;;;;5068278;28;20029;-57
2023/11/01 10:26:43;;;;;;;97.30;17.02;;;12.60;98.10;;;;;;5073180;28;20025;-57
2023/11/01 10:29:08;;;;;;;52.70;10.35;;;12.60;98.10;;;;;;5090198;28;20073;-57
2023/11/01 10:31:34;;;;;;;79.50;11.75;;;12.60;97.90;;;;;;5094066;28;20071;-57
2023/11/01 10:33:59;;;;;;;69.65;10.73;;;12.60;97.80;;;;;;5047975;28;20047;-57
2023/11/01 10:36:25;;;;;;;94.80;12.85;;;12.70;97.70;;;;;;5058012;28;20021;-57
2023/11/01 10:38:51;;;;;;;98.30;14.60;;;12.70;97.70;;;;;;5066554;28;20032;-57
2023/11/01 10:41:18;;;;;;;106.65;15.65;;;12.80;97.70;;;;;;5057366;28;20047;-57
2023/11/01 10:43:43;;;;;;;412.80;38.63;;;12.80;97.90;;;;;;5067490;28;20058;-57
2023/11/01 10:46:09;;;;;;;157.75;19.83;;;12.80;97.90;;;;;;5059935;28;20021;-57
2023/11/01 10:48:34;;;;;;;139.48;19.52;;;12.80;98.00;;;;;;5060529;28;20044;-57
2023/11/01 10:51:03;;;;;;;118.88;17.05;;;12.90;98.00;;;;;;5050512;28;20032;-57
2023/11/01 10:53:29;;;;;;;145.50;17.92;;;12.90;98.00;;;;;;5063062;28;20051;-57
2023/11/01 10:55:55;;;;;;;146.07;17.88;;;12.90;98.00;;;;;;5058373;28;20035;-57
2023/11/01 10:58:23;;;;;;;153.93;17.35;;;12.90;98.00;;;;;;5051541;28;20103;-57
2023/11/01 11:00:57;;;;;;;177.52;18.55;;;13.00;97.90;;;;;;5045280;28;20035;-57
2023/11/01 11:03:25;;;;;;;135.60;17.85;;;13.10;97.80;;;;;;5084304;28;20055;-57
2023/11/01 11:05:51;;;;;;;124.47;17.55;;;13.10;97.80;;;;;;5058400;28;20066;-57
2023/11/01 11:08:16;;;;;;;147.45;18.40;;;13.20;97.70;;;;;;5034221;28;20024;-57
2023/11/01 11:10:43;;;;;;;154.13;20.13;;;13.20;97.80;;;;;;5053764;28;20064;-57
2023/11/01 11:13:09;;;;;;;160.27;21.05;;;13.20;97.60;;;;;;5061257;28;20108;-57
2023/11/01 11:18:22;;;;;;;183.18;23.00;;;13.30;97.50;;;;;;5089103;28;20112;-57
2023/11/01 11:20:48;;;;;;;144.80;20.60;;;13.30;97.40;;;;;;5036108;28;20040;-57
2023/11/01 11:23:14;;;;;;;174.38;21.20;;;13.30;97.50;;;;;;5049168;28;20123;-57
2023/11/01 11:25:49;;;;;;;127.43;16.67;;;13.30;97.40;;;;;;5050595;28;20086;-58
2023/11/01 11:28:18;;;;;;;314.60;37.42;;;13.40;97.40;;;;;;5045049;28;20048;-57
2023/11/01 11:31:06;;;;;;;236.68;28.20;;;13.40;97.40;;;;;;5070404;28;20044;-57
2023/11/01 11:33:33;;;;;;;252.95;31.10;;;13.40;97.30;;;;;;5052877;28;20027;-57
2023/11/01 11:36:18;;;;;;;674.72;70.55;;;13.50;97.10;;;;;;5083729;28;20348;-57
2023/11/01 11:38:57;;;;;;;312.45;35.58;;;13.50;97.00;;;;;;5080017;28;20033;-57
2023/11/01 11:41:23;;;;;;;210.40;27.80;;;13.60;97.00;;;;;;5057946;28;20034;-58
2023/11/01 11:44:00;;;;;;;173.07;24.05;;;13.60;97.00;;;;;;5051373;28;20051;-57
2023/11/01 11:46:31;;;;;;;171.05;22.30;;;13.60;97.00;;;;;;5082996;28;20035;-57
2023/11/01 11:49:03;;;;;;;179.18;22.23;;;13.70;96.90;;;;;;5060250;28;20033;-57
2023/11/01 11:51:35;;;;;;;149.27;20.35;;;13.60;96.80;;;;;;5047508;28;20083;-57
2023/11/01 11:54:30;;;;;;;159.00;23.63;;;13.60;96.70;;;;;;5057909;28;20036;-57
2023/11/01 11:56:57;;;;;;;231.43;27.02;;;13.60;96.50;;;;;;5053944;28;20033;-57
2023/11/01 11:59:24;;;;;;;188.90;24.00;;;13.70;96.60;;;;;;5031974;28;20029;-57
2023/11/01 12:01:54;;;;;;;184.35;23.50;;;13.70;96.60;;;;;;5065478;28;20546;-57
2023/11/01 12:04:19;;;;;;;161.00;21.52;;;13.70;96.60;;;;;;5049914;28;20037;-57
2023/11/01 12:06:50;;;;;;;183.25;22.48;;;13.80;96.40;;;;;;5047447;28;20039;-57
2023/11/01 12:09:21;;;;;;;137.35;20.35;;;13.70;96.50;;;;;;5052039;28;20125;-57
2023/11/01 12:11:49;;;;;;;114.15;16.70;;;13.80;96.40;;;;;;5043938;28;20036;-57
2023/11/01 12:14:24;;;;;;;100.45;16.77;;;13.80;96.50;;;;;;5043917;28;20037;-57
2023/11/01 12:16:50;;;;;;;116.88;16.52;;;13.80;96.50;;;;;;5077436;28;20017;-57
2023/11/01 12:19:23;;;;;;;127.07;16.02;;;13.80;96.40;;;;;;5048778;28;20059;-57
2023/11/01 12:21:56;;;;;;;105.45;16.25;;;13.80;96.40;;;;;;5053515;28;20036;-57
2023/11/01 12:24:23;;;;;;;108.10;14.05;;;13.80;96.30;;;;;;5087539;28;20025;-57
2023/11/01 12:27:09;;;;;;;97.03;15.15;;;13.80;96.20;;;;;;5086720;28;20490;-57
2023/11/01 12:29:47;;;;;;;103.07;14.60;;;13.90;96.10;;;;;;5058334;28;21399;-58
2023/11/01 12:32:16;;;;;;;93.70;13.88;;;13.90;95.90;;;;;;5080624;28;20025;-57